createdAt,value
2018-09-06T00:01:36.325Z,60363.34
2018-09-06T00:04:04.556Z,60334.88
2018-09-06T00:06:32.760Z,60360.29
2018-09-06T00:09:00.945Z,60340.98
2018-09-06T00:11:29.125Z,60339.96
2018-09-06T00:13:57.327Z,60355.21
2018-09-06T00:16:25.567Z,60334.88
2018-09-06T00:18:53.715Z,60364.35
2018-09-06T00:21:21.900Z,60340.98
2018-09-06T00:23:50.092Z,60386.71
2018-09-06T00:26:18.271Z,60359.27
2018-09-06T00:28:46.447Z,60345.04
2018-09-06T00:31:14.625Z,60358.25
2018-09-06T00:33:42.811Z,60331.84
2018-09-06T00:36:11.020Z,60361.30
2018-09-06T00:38:39.200Z,60346.06
2018-09-06T00:41:07.404Z,60354.19
2018-09-06T00:43:35.609Z,60351.14
2018-09-06T00:46:03.948Z,60362.32
2018-09-06T00:48:32.154Z,60366.39
2018-09-06T00:51:00.363Z,60372.48
2018-09-06T00:53:28.542Z,60357.24
2018-09-06T00:55:56.733Z,60363.34
2018-09-06T00:58:24.988Z,60359.27
2018-09-06T01:00:53.194Z,60339.96
2018-09-06T01:03:21.410Z,60354.19
2018-09-06T01:05:49.598Z,60356.22
2018-09-06T01:08:17.778Z,60369.43
2018-09-06T01:10:45.979Z,60353.18
2018-09-06T01:13:14.152Z,60362.32
2018-09-06T01:15:42.344Z,60353.18
2018-09-06T01:18:10.528Z,60357.24
2018-09-06T01:20:38.718Z,60379.59
2018-09-06T01:23:07.017Z,60349.11
2018-09-06T01:25:51.663Z,60330.82
2018-09-06T01:28:20.936Z,60351.14
2018-09-06T01:30:49.522Z,60354.19
2018-09-06T01:33:17.715Z,60340.98
2018-09-06T01:35:51.091Z,60352.16
2018-09-06T01:38:19.273Z,60346.06
2018-09-06T01:40:47.465Z,60350.12
2018-09-06T01:43:15.692Z,60347.08
2018-09-06T01:45:43.875Z,60353.18
2018-09-06T01:48:12.050Z,60370.45
2018-09-06T01:50:40.262Z,60371.46
2018-09-06T01:53:08.452Z,60362.32
2018-09-06T01:55:36.654Z,60363.34
2018-09-06T01:58:04.850Z,60357.24
2018-09-06T02:00:33.068Z,60370.45
2018-09-06T02:03:01.271Z,60377.56
2018-09-06T02:05:30.406Z,60374.52
2018-09-06T02:07:59.088Z,60359.27
2018-09-06T02:10:27.263Z,60356.22
2018-09-06T02:12:55.472Z,60353.18
2018-09-06T02:15:23.655Z,60348.09
2018-09-06T02:17:51.835Z,60363.34
2018-09-06T02:20:20.045Z,60352.16
2018-09-06T02:22:48.240Z,60369.43
2018-09-06T02:25:16.463Z,60362.32
2018-09-06T02:27:44.650Z,60380.61
2018-09-06T02:30:12.861Z,60366.39
2018-09-06T02:32:41.037Z,60357.24
2018-09-06T02:35:09.219Z,60370.45
2018-09-06T02:37:37.791Z,60370.45
2018-09-06T02:40:06.700Z,60382.64
2018-09-06T02:42:34.884Z,60348.09
2018-09-06T02:45:03.083Z,60369.43
2018-09-06T02:47:31.284Z,60368.42
2018-09-06T02:50:04.704Z,60371.46
2018-09-06T02:52:32.892Z,60364.35
2018-09-06T02:55:01.088Z,60355.21
2018-09-06T02:57:29.267Z,60361.30
2018-09-06T02:59:57.468Z,60379.59
2018-09-06T03:02:25.659Z,60359.27
2018-09-06T03:04:53.882Z,60371.46
2018-09-06T03:07:22.068Z,60365.37
2018-09-06T03:09:50.264Z,60383.66
2018-09-06T03:12:18.459Z,60365.37
2018-09-06T03:14:46.708Z,60389.76
2018-09-06T03:17:14.874Z,60393.82
2018-09-06T03:19:43.075Z,60375.53
2018-09-06T03:22:11.253Z,60362.32
2018-09-06T03:24:39.424Z,60379.59
2018-09-06T03:27:07.635Z,60367.40
2018-09-06T03:29:35.803Z,60377.56
2018-09-06T03:32:03.999Z,60360.29
2018-09-06T03:34:32.197Z,60387.72
2018-09-06T03:37:00.373Z,60395.86
2018-09-06T03:39:28.539Z,60384.68
2018-09-06T03:41:56.735Z,60383.66
2018-09-06T03:44:24.977Z,60370.45
2018-09-06T03:46:53.159Z,60354.19
2018-09-06T03:49:21.334Z,60368.42
2018-09-06T03:51:49.537Z,60388.74
2018-09-06T03:54:17.742Z,60374.52
2018-09-06T03:56:46.212Z,60394.84
2018-09-06T03:59:14.400Z,60379.59
2018-09-06T04:01:42.595Z,60364.35
2018-09-06T04:04:10.782Z,60380.61
2018-09-06T04:06:38.980Z,60389.76
2018-09-06T04:09:08.847Z,60376.55
2018-09-06T04:11:37.023Z,60374.52
2018-09-06T04:14:05.257Z,60369.43
2018-09-06T04:16:33.571Z,60368.42
2018-09-06T04:19:01.812Z,60358.25
2018-09-06T04:21:36.742Z,60403.98
2018-09-06T04:24:04.959Z,60385.69
2018-09-06T04:26:33.172Z,60382.64
2018-09-06T04:29:01.443Z,60394.84
2018-09-06T04:31:29.652Z,60369.43
2018-09-06T04:33:57.849Z,60388.74
2018-09-06T04:36:26.015Z,60403.98
2018-09-06T04:38:54.211Z,60380.61
2018-09-06T04:41:22.379Z,60385.69
2018-09-06T04:43:50.650Z,60398.90
2018-09-06T04:46:18.804Z,60375.53
2018-09-06T04:48:47.128Z,60338.95
2018-09-06T04:51:15.294Z,60395.86
2018-09-06T04:53:43.476Z,60392.80
2018-09-06T04:56:11.659Z,60383.66
2018-09-06T04:58:39.964Z,60393.82
2018-09-06T05:01:08.271Z,60395.86
2018-09-06T05:03:36.455Z,60383.66
2018-09-06T05:06:04.776Z,60375.53
2018-09-06T05:08:32.960Z,60417.20
2018-09-06T05:11:01.136Z,60409.07
2018-09-06T05:13:29.294Z,60392.80
2018-09-06T05:15:57.479Z,60420.24
2018-09-06T05:18:25.673Z,60381.63
2018-09-06T05:20:53.861Z,60407.03
2018-09-06T05:23:22.023Z,60381.63
2018-09-06T05:25:50.212Z,60391.79
2018-09-06T05:28:18.386Z,60393.82
2018-09-06T05:30:46.611Z,60424.31
2018-09-06T05:33:14.756Z,60401.95
2018-09-06T05:35:42.965Z,60413.13
2018-09-06T05:38:11.139Z,60382.64
2018-09-06T05:40:39.304Z,60412.11
2018-09-06T05:43:07.493Z,60406.02
2018-09-06T05:45:35.687Z,60406.02
2018-09-06T05:48:03.881Z,60392.80
2018-09-06T05:50:32.164Z,60391.79
2018-09-06T05:53:01.694Z,60411.10
2018-09-06T05:55:29.903Z,60396.87
2018-09-06T05:57:58.096Z,60427.36
2018-09-06T06:00:31.446Z,60408.05
2018-09-06T06:03:01.547Z,60413.13
2018-09-06T06:05:29.843Z,60420.24
2018-09-06T06:08:09.353Z,60426.34
2018-09-06T06:10:37.525Z,60400.93
2018-09-06T06:13:05.710Z,60412.11
2018-09-06T06:15:33.877Z,60407.03
2018-09-06T06:18:02.748Z,60410.08
2018-09-06T06:20:30.924Z,60414.14
2018-09-06T06:22:59.132Z,60417.20
2018-09-06T06:25:27.311Z,60393.82
2018-09-06T06:27:55.511Z,60424.31
2018-09-06T06:30:23.690Z,60391.79
2018-09-06T06:32:51.879Z,60414.14
2018-09-06T06:35:20.105Z,60416.18
2018-09-06T06:37:48.246Z,60421.26
2018-09-06T06:40:16.425Z,60415.16
2018-09-06T06:42:44.596Z,60425.32
2018-09-06T06:45:12.787Z,60421.26
2018-09-06T06:47:40.965Z,60408.05
2018-09-06T06:50:09.147Z,60410.08
2018-09-06T06:52:37.331Z,60396.87
2018-09-06T06:55:05.827Z,60411.10
2018-09-06T06:57:34.091Z,60392.80
2018-09-06T07:00:02.319Z,60408.05
2018-09-06T07:02:30.499Z,60392.80
2018-09-06T07:04:58.680Z,60440.57
2018-09-06T07:07:26.861Z,60423.29
2018-09-06T07:09:55.031Z,60426.34
2018-09-06T07:12:23.212Z,60402.97
2018-09-06T07:14:51.379Z,60407.03
2018-09-06T07:17:19.564Z,60416.18
2018-09-06T07:19:47.761Z,60413.13
2018-09-06T07:22:15.948Z,60413.13
2018-09-06T07:24:44.215Z,60406.02
2018-09-06T07:27:12.399Z,60424.31
2018-09-06T07:29:40.575Z,60412.11
2018-09-06T07:32:08.767Z,60390.77
2018-09-06T07:34:36.934Z,60426.34
2018-09-06T07:37:05.350Z,60406.02
2018-09-06T07:39:33.524Z,60393.82
2018-09-06T07:42:01.715Z,60397.89
2018-09-06T07:44:29.895Z,60434.47
2018-09-06T07:46:58.095Z,60419.23
2018-09-06T07:49:26.247Z,60406.02
2018-09-06T07:51:54.423Z,60390.77
2018-09-06T07:54:22.599Z,60419.23
2018-09-06T07:56:50.793Z,60422.27
2018-09-06T07:59:18.968Z,60405.00
2018-09-06T08:01:47.143Z,60415.16
2018-09-06T08:04:15.336Z,60425.32
2018-09-06T08:06:43.531Z,60420.24
2018-09-06T08:09:12.448Z,60406.02
2018-09-06T08:11:41.228Z,60406.02
2018-09-06T08:14:09.463Z,60413.13
2018-09-06T08:16:37.667Z,60410.08
2018-09-06T08:19:05.870Z,60408.05
2018-09-06T08:21:34.060Z,60398.90
2018-09-06T08:24:02.257Z,60413.13
2018-09-06T08:26:30.447Z,60398.90
2018-09-06T08:28:58.672Z,60393.82
2018-09-06T08:31:26.904Z,60409.07
2018-09-06T08:33:55.051Z,60393.82
2018-09-06T08:36:23.226Z,60393.82
2018-09-06T08:38:51.407Z,60414.14
2018-09-06T08:41:19.593Z,60432.44
2018-09-06T08:43:47.824Z,60378.58
2018-09-06T08:46:16.012Z,60408.05
2018-09-06T08:48:44.207Z,60389.76
2018-09-06T08:51:12.407Z,60392.80
2018-09-06T08:53:40.585Z,60420.24
2018-09-06T08:56:08.755Z,60425.32
2018-09-06T08:58:36.963Z,60393.82
2018-09-06T09:01:10.546Z,60406.02
2018-09-06T09:03:38.757Z,60411.10
2018-09-06T09:06:06.964Z,60416.18
2018-09-06T09:08:35.233Z,60409.07
2018-09-06T09:11:03.399Z,60403.98
2018-09-06T09:13:31.616Z,60384.68
2018-09-06T09:15:59.850Z,60408.05
2018-09-06T09:18:28.069Z,60396.87
2018-09-06T09:20:56.218Z,60388.74
2018-09-06T09:23:24.387Z,60398.90
2018-09-06T09:25:52.564Z,60379.59
2018-09-06T09:28:20.758Z,60381.63
2018-09-06T09:30:48.944Z,60399.92
2018-09-06T09:33:17.203Z,60392.80
2018-09-06T09:35:45.405Z,60407.03
2018-09-06T09:38:13.572Z,60406.02
2018-09-06T09:40:41.756Z,60401.95
2018-09-06T09:43:10.336Z,60402.97
2018-09-06T09:45:38.490Z,60383.66
2018-09-06T09:48:06.687Z,60399.92
2018-09-06T09:53:02.245Z,60397.89
2018-09-06T09:55:30.435Z,60375.53
2018-09-06T09:57:58.811Z,60390.77
2018-09-06T10:00:32.375Z,60381.63
2018-09-06T10:03:05.870Z,60368.42
2018-09-06T10:05:39.608Z,60371.46
2018-09-06T10:08:13.180Z,60391.79
2018-09-06T10:10:41.668Z,60347.08
2018-09-06T10:13:10.212Z,60375.53
2018-09-06T10:15:38.590Z,60375.53
2018-09-06T10:18:07.007Z,60349.11
2018-09-06T10:20:35.247Z,60352.16
2018-09-06T10:23:03.571Z,60372.48
2018-09-06T10:25:31.759Z,60374.52
2018-09-06T10:27:59.980Z,60387.72
2018-09-06T10:30:28.231Z,60362.32
2018-09-06T10:32:56.420Z,60353.18
2018-09-06T10:35:24.888Z,60359.27
2018-09-06T10:37:53.035Z,60374.52
2018-09-06T10:40:21.249Z,60357.24
2018-09-06T10:42:49.443Z,60377.56
2018-09-06T10:45:17.635Z,60403.98
2018-09-06T10:47:46.347Z,60377.56
2018-09-06T10:50:14.526Z,60362.32
2018-09-06T10:52:42.714Z,60369.43
2018-09-06T10:55:10.909Z,60364.35
2018-09-06T10:57:39.155Z,60387.72
2018-09-06T11:00:07.884Z,60387.72
2018-09-06T11:02:36.094Z,60375.53
2018-09-06T11:05:04.551Z,60366.39
2018-09-06T11:07:32.726Z,60363.34
2018-09-06T11:10:00.916Z,60371.46
2018-09-06T11:12:29.303Z,60369.43
2018-09-06T11:14:57.497Z,60364.35
2018-09-06T11:17:25.745Z,60350.12
2018-09-06T11:19:53.935Z,60377.56
2018-09-06T11:22:22.269Z,60365.37
2018-09-06T11:24:50.310Z,60355.21
2018-09-06T11:27:18.491Z,60358.25
2018-09-06T11:29:46.706Z,60369.43
2018-09-06T11:32:14.887Z,60364.35
2018-09-06T11:34:43.078Z,60347.08
2018-09-06T11:37:11.354Z,60345.04
2018-09-06T11:39:39.597Z,60349.11
2018-09-06T11:42:07.911Z,60357.24
2018-09-06T11:44:36.125Z,60349.11
2018-09-06T11:47:04.336Z,60373.50
2018-09-06T11:49:32.542Z,60354.19
2018-09-06T11:52:00.747Z,60369.43
2018-09-06T11:54:29.019Z,60361.30
2018-09-06T11:56:57.222Z,60336.91
2018-09-06T11:59:25.482Z,60349.11
2018-09-06T12:01:53.691Z,60361.30
2018-09-06T12:04:21.906Z,60349.11
2018-09-06T12:06:50.112Z,60365.37
2018-09-06T12:09:19.828Z,60357.24
2018-09-06T12:11:48.052Z,60324.72
2018-09-06T12:14:16.259Z,60351.14
2018-09-06T12:16:44.528Z,60349.11
2018-09-06T12:19:12.751Z,60374.52
2018-09-06T12:21:40.978Z,60360.29
2018-09-06T12:24:09.192Z,60354.19
2018-09-06T12:26:37.561Z,60349.11
2018-09-06T12:29:06.069Z,60349.11
2018-09-06T12:31:34.342Z,60363.34
2018-09-06T12:34:02.549Z,60348.09
2018-09-06T12:36:30.752Z,60377.56
2018-09-06T12:38:59.014Z,60369.43
2018-09-06T12:41:27.202Z,60344.03
2018-09-06T12:43:55.403Z,60352.16
2018-09-06T12:46:23.618Z,60372.48
2018-09-06T12:48:51.797Z,60361.30
2018-09-06T12:51:19.998Z,60363.34
2018-09-06T12:53:48.164Z,60348.09
2018-09-06T12:56:16.532Z,60325.74
2018-09-06T12:58:44.735Z,60336.91
2018-09-06T13:01:13.217Z,60365.37
2018-09-06T13:03:41.703Z,60354.19
2018-09-06T13:06:09.904Z,60347.08
2018-09-06T13:08:38.100Z,60353.18
2018-09-06T13:11:06.319Z,60351.14
2018-09-06T13:13:34.539Z,60338.95
2018-09-06T13:16:03.068Z,60321.67
2018-09-06T13:18:31.328Z,60349.11
2018-09-06T13:20:59.443Z,60331.84
2018-09-06T13:23:27.628Z,60354.19
2018-09-06T13:25:55.836Z,60335.90
2018-09-06T13:28:24.024Z,60351.14
2018-09-06T13:30:52.428Z,60336.91
2018-09-06T13:33:20.608Z,60332.85
2018-09-06T13:35:48.791Z,60332.85
2018-09-06T13:38:16.976Z,60332.85
2018-09-06T13:40:45.264Z,60340.98
2018-09-06T13:43:13.455Z,60324.72
2018-09-06T13:45:41.658Z,60331.84
2018-09-06T13:48:09.835Z,60319.64
2018-09-06T13:50:38.028Z,60345.04
2018-09-06T13:53:06.221Z,60337.93
2018-09-06T13:55:34.444Z,60331.84
2018-09-06T13:58:02.662Z,60319.64
2018-09-06T14:00:31.194Z,60337.93
2018-09-06T14:02:59.378Z,60323.71
2018-09-06T14:05:27.663Z,60326.75
2018-09-06T14:07:55.906Z,60333.87
2018-09-06T14:10:24.087Z,60312.53
2018-09-06T14:12:52.308Z,60319.64
2018-09-06T14:15:20.489Z,60328.79
2018-09-06T14:17:48.901Z,60305.41
2018-09-06T14:20:17.079Z,60317.61
2018-09-06T14:22:45.270Z,60343.01
2018-09-06T14:25:13.518Z,60318.62
2018-09-06T14:27:41.715Z,60311.51
2018-09-06T14:30:09.907Z,60306.43
2018-09-06T14:32:38.104Z,60306.43
2018-09-06T14:35:06.304Z,60322.69
2018-09-06T14:37:34.506Z,60317.61
2018-09-06T14:40:02.791Z,60335.90
2018-09-06T14:42:31.064Z,60331.84
2018-09-06T14:44:59.299Z,60312.53
2018-09-06T14:47:27.483Z,60308.46
2018-09-06T14:49:55.694Z,60288.14
2018-09-06T14:52:23.898Z,60299.32
2018-09-06T14:54:52.087Z,60314.56
2018-09-06T14:57:20.373Z,60303.38
2018-09-06T14:59:48.603Z,60319.64
2018-09-06T15:02:16.794Z,60307.45
2018-09-06T15:04:44.967Z,60334.88
2018-09-06T15:07:13.190Z,60313.54
2018-09-06T15:09:41.354Z,60332.85
2018-09-06T15:12:09.575Z,60328.79
2018-09-06T15:14:37.790Z,60337.93
2018-09-06T15:17:06.129Z,60334.88
2018-09-06T15:19:34.328Z,60324.72
2018-09-06T15:22:02.532Z,60342.00
2018-09-06T15:24:30.724Z,60322.69
2018-09-06T15:26:58.935Z,60320.66
2018-09-06T15:29:27.139Z,60333.87
2018-09-06T15:31:55.370Z,60319.64
2018-09-06T15:34:24.317Z,60327.77
2018-09-06T15:36:52.522Z,60325.74
2018-09-06T15:39:20.731Z,60329.80
2018-09-06T15:41:48.940Z,60332.85
2018-09-06T15:44:17.139Z,60327.77
2018-09-06T15:46:45.339Z,60337.93
2018-09-06T15:49:13.556Z,60316.59
2018-09-06T15:51:41.806Z,60347.08
2018-09-06T15:54:10.257Z,60342.00
2018-09-06T15:56:38.540Z,60316.59
2018-09-06T15:59:07.329Z,60334.88
2018-09-06T16:01:35.885Z,60319.64
2018-09-06T16:04:04.126Z,60317.61
2018-09-06T16:06:32.534Z,60329.80
2018-09-06T16:09:00.862Z,60330.82
2018-09-06T16:11:29.744Z,60323.71
2018-09-06T16:13:57.971Z,60315.57
2018-09-06T16:16:26.167Z,60312.53
2018-09-06T16:18:55.064Z,60312.53
2018-09-06T16:21:23.902Z,60312.53
2018-09-06T16:23:52.347Z,60318.62
2018-09-06T16:26:21.117Z,60330.82
2018-09-06T16:28:50.143Z,60322.69
2018-09-06T16:31:18.959Z,60332.85
2018-09-06T16:33:48.715Z,60339.96
2018-09-06T16:36:17.023Z,60332.85
2018-09-06T16:38:46.757Z,60331.84
2018-09-06T16:41:15.541Z,60343.01
2018-09-06T16:43:45.199Z,60319.64
2018-09-06T16:46:13.539Z,60345.04
2018-09-06T16:48:41.715Z,60326.75
2018-09-06T16:51:09.898Z,60340.98
2018-09-06T16:53:38.246Z,60326.75
2018-09-06T16:56:06.594Z,60354.19
2018-09-06T16:58:34.877Z,60339.96
2018-09-06T17:01:03.342Z,60348.09
2018-09-06T17:03:31.856Z,60340.98
2018-09-06T17:06:00.091Z,60319.64
2018-09-06T17:08:29.413Z,60335.90
2018-09-06T17:10:58.117Z,60335.90
2018-09-06T17:13:27.079Z,60340.98
2018-09-06T17:15:56.259Z,60332.85
2018-09-06T17:18:24.713Z,60335.90
2018-09-06T17:20:53.523Z,60329.80
2018-09-06T17:23:21.872Z,60342.00
2018-09-06T17:25:50.083Z,60357.24
2018-09-06T17:28:18.520Z,60347.08
2018-09-06T17:30:46.741Z,60338.95
2018-09-06T17:33:14.977Z,60356.22
2018-09-06T17:35:43.095Z,60354.19
2018-09-06T17:38:11.267Z,60348.09
2018-09-06T17:40:39.460Z,60357.24
2018-09-06T17:43:08.310Z,60368.42
2018-09-06T17:45:37.584Z,60352.16
2018-09-06T17:48:06.475Z,60345.04
2018-09-06T17:50:34.911Z,60346.06
2018-09-06T17:53:03.421Z,60366.39
2018-09-06T17:55:32.539Z,60349.11
2018-09-06T17:58:00.775Z,60356.22
2018-09-06T18:00:30.008Z,60339.96
2018-09-06T18:02:58.280Z,60357.24
2018-09-06T18:05:27.410Z,60353.18
2018-09-06T18:07:56.653Z,60337.93
2018-09-06T18:10:25.085Z,60353.18
2018-09-06T18:12:53.538Z,60377.56
2018-09-06T18:15:22.432Z,60339.96
2018-09-06T18:17:50.900Z,60339.96
2018-09-06T18:20:18.981Z,60356.22
2018-09-06T18:22:47.265Z,60357.24
2018-09-06T18:25:15.550Z,60385.69
2018-09-06T18:27:43.915Z,60361.30
2018-09-06T18:30:12.150Z,60362.32
2018-09-06T18:32:40.359Z,60362.32
2018-09-06T18:35:08.560Z,60366.39
2018-09-06T18:37:36.814Z,60369.43
2018-09-06T18:40:05.240Z,60360.29
2018-09-06T18:42:33.410Z,60357.24
2018-09-06T18:45:01.615Z,60378.58
2018-09-06T18:47:29.808Z,60365.37
2018-09-06T18:49:57.976Z,60371.46
2018-09-06T18:52:26.170Z,60362.32
2018-09-06T18:54:54.358Z,60354.19
2018-09-06T18:57:22.534Z,60344.03
2018-09-06T18:59:50.710Z,60350.12
2018-09-06T19:02:18.891Z,60360.29
2018-09-06T19:04:47.116Z,60378.58
2018-09-06T19:07:15.302Z,60375.53
2018-09-06T19:09:43.483Z,60373.50
2018-09-06T19:12:11.700Z,60381.63
2018-09-06T19:14:39.904Z,60349.11
2018-09-06T19:17:08.911Z,60403.98
2018-09-06T19:19:38.130Z,60361.30
2018-09-06T19:22:06.539Z,60375.53
2018-09-06T19:24:34.751Z,60375.53
2018-09-06T19:27:03.767Z,60378.58
2018-09-06T19:29:32.034Z,60387.72
2018-09-06T19:32:00.358Z,60392.80
2018-09-06T19:34:29.282Z,60392.80
2018-09-06T19:36:59.825Z,60380.61
2018-09-06T19:39:28.079Z,60378.58
2018-09-06T19:41:56.415Z,60379.59
2018-09-06T19:44:25.890Z,60406.02
2018-09-06T19:46:54.855Z,60393.82
2018-09-06T19:49:24.942Z,60391.79
2018-09-06T19:51:53.320Z,60387.72
2018-09-06T19:54:21.796Z,60392.80
2018-09-06T19:56:49.989Z,60395.86
2018-09-06T19:59:19.204Z,60363.34
2018-09-06T20:01:47.585Z,60405.00
2018-09-06T20:04:15.754Z,60386.71
2018-09-06T20:06:44.629Z,60394.84
2018-09-06T20:09:12.896Z,60413.13
2018-09-06T20:11:42.186Z,60389.76
2018-09-06T20:14:10.483Z,60385.69
2018-09-06T20:16:38.672Z,60398.90
2018-09-06T20:19:06.827Z,60393.82
2018-09-06T20:21:35.030Z,60416.18
2018-09-06T20:24:03.228Z,60417.20
2018-09-06T20:26:31.391Z,60410.08
2018-09-06T20:28:59.572Z,60391.79
2018-09-06T20:31:27.766Z,60387.72
2018-09-06T20:33:55.940Z,60409.07
2018-09-06T20:36:24.120Z,60419.23
2018-09-06T20:38:52.302Z,60416.18
2018-09-06T20:41:20.495Z,60436.50
2018-09-06T20:43:48.673Z,60385.69
2018-09-06T20:46:16.856Z,60408.05
2018-09-06T20:48:45.033Z,60411.10
2018-09-06T20:51:13.220Z,60403.98
2018-09-06T20:53:41.402Z,60413.13
2018-09-06T20:56:09.575Z,60411.10
2018-09-06T20:58:37.956Z,60405.00
2018-09-06T21:01:06.188Z,60413.13
2018-09-06T21:03:34.368Z,60411.10
2018-09-06T21:06:02.655Z,60431.42
2018-09-06T21:08:30.842Z,60414.14
2018-09-06T21:10:59.021Z,60408.05
2018-09-06T21:13:27.211Z,60425.32
2018-09-06T21:15:55.385Z,60410.08
2018-09-06T21:18:23.570Z,60403.98
2018-09-06T21:20:51.743Z,60393.82
2018-09-06T21:23:19.926Z,60419.23
2018-09-06T21:25:48.087Z,60416.18
2018-09-06T21:28:16.300Z,60421.26
2018-09-06T21:30:44.475Z,60429.39
2018-09-06T21:33:12.660Z,60425.32
2018-09-06T21:35:40.858Z,60416.18
2018-09-06T21:38:09.042Z,60419.23
2018-09-06T21:40:37.231Z,60411.10
2018-09-06T21:43:05.794Z,60419.23
2018-09-06T21:45:33.959Z,60413.13
2018-09-06T21:48:02.134Z,60414.14
2018-09-06T21:50:30.354Z,60415.16
2018-09-06T21:52:58.608Z,60407.03
2018-09-06T21:55:26.786Z,60415.16
2018-09-06T21:57:54.993Z,60422.27
2018-09-06T22:00:23.180Z,60414.14
2018-09-06T22:02:56.563Z,60451.75
2018-09-06T22:05:24.743Z,60425.32
2018-09-06T22:07:52.934Z,60421.26
2018-09-06T22:10:22.238Z,60421.26
2018-09-06T22:12:51.066Z,60421.26
2018-09-06T22:15:19.629Z,60430.40
2018-09-06T22:17:47.807Z,60418.21
2018-09-06T22:20:16.030Z,60436.50
2018-09-06T22:22:44.280Z,60410.08
2018-09-06T22:25:12.463Z,60408.05
2018-09-06T22:27:40.641Z,60421.26
2018-09-06T22:30:08.891Z,60415.16
2018-09-06T22:32:37.086Z,60432.44
2018-09-06T22:35:05.278Z,60399.92
2018-09-06T22:37:33.477Z,60438.53
2018-09-06T22:40:01.663Z,60424.31
2018-09-06T22:42:29.851Z,60443.61
2018-09-06T22:44:58.047Z,60427.36
2018-09-06T22:47:26.238Z,60431.42
2018-09-06T22:49:54.416Z,60414.14
2018-09-06T22:52:22.599Z,60451.75
2018-09-06T22:54:50.812Z,60448.70
2018-09-06T22:57:19.001Z,60424.31
2018-09-06T22:59:47.198Z,60426.34
2018-09-06T23:02:15.382Z,60435.48
2018-09-06T23:04:43.568Z,60441.58
2018-09-06T23:07:11.774Z,60433.45
2018-09-06T23:09:39.967Z,60432.44
2018-09-06T23:12:08.168Z,60440.57
2018-09-06T23:14:36.367Z,60434.47
2018-09-06T23:17:04.539Z,60440.57
2018-09-06T23:19:32.723Z,60440.57
2018-09-06T23:22:00.910Z,60421.26
2018-09-06T23:24:29.512Z,60449.71
2018-09-06T23:26:57.699Z,60451.75
2018-09-06T23:29:25.899Z,60432.44
2018-09-06T23:31:54.173Z,60442.60
2018-09-06T23:34:22.363Z,60452.76
2018-09-06T23:36:50.549Z,60429.39
2018-09-06T23:39:18.726Z,60448.70
2018-09-06T23:41:46.911Z,60452.76
2018-09-06T23:44:15.103Z,60439.55
2018-09-06T23:46:43.291Z,60441.58
2018-09-06T23:49:11.485Z,60462.92
2018-09-06T23:51:39.660Z,60458.86
2018-09-06T23:54:07.859Z,60457.84
2018-09-06T23:56:36.062Z,60443.61
2018-09-06T23:59:04.251Z,60431.42
